Terminal Aerodrome Forecast
Issued by NWS

Home | Current Version | Previous Version | Text Only | Print | Product List | Glossary On
Versions: 1 2 3 4 5 6 7 8 9 10 11 12 13 14 15 16 17 18 19 20 21
968
FTUS41 KGYX 161125
TAFAUG
TAF
KAUG 161125Z 1612/1712 31006KT P6SM SCT250
     FM161600 32010G15KT P6SM SCT250
     FM162300 32006KT P6SM SKC=

USA.gov is the U.S. government's official web portal to all federal, state and local government web resources and services.